Banco Playa, Mexico

6:33 AM EST on December 05, 2016 (GMT -0500)
APRSWXNET | | Change Station

Elev 13 ft 20.50 °N, 86.96 °W | Updated 45 minutes ago

Scattered Clouds
Scattered Clouds
78 °F
Feels Like 81 °F
N
7
Wind Variable Wind from SSE
Gusts 12.0 mph

Today
High -- | Low -- °F
--% Chance of Precip.
Yesterday
High -- | Low -- °F
Precip. -- in
Pressure 29.83 in
Visibility 7.0 miles
Clouds Scattered Clouds 1500 ft
Heat Index 81 °F
Dew Point 76 °F
Humidity 95%
Rainfall in
Snow Depth Not available.
7:10 AM 6:07 PM
Waxing Crescent, 31% visible
METAR MMCZ 051050Z 14006KT 7SM SCT015 27/25 A2983 RMK 8/100
Pressure 29.83 in
Visibility 7.0 miles
Clouds Scattered Clouds 1500 ft
Heat Index 81 °F
Dew Point 76 °F
Humidity 95%
Rainfall in
Snow Depth Not available.
7:10 AM 6:07 PM
Waxing Crescent, 31% visible
METAR MMCZ 051050Z 14006KT 7SM SCT015 27/25 A2983 RMK 8/100

10-Day Weather Forecast

No radar image for this location.
×

Almanac

Astronomy

Dec. 05, 2016 Rise Set
Actual Time
Civil Twilight
Nautical Twilight
Astronomical Twilight
Moon
Length of Visible Light
Length of Day
Tomorrow will be .
, % of the Moon is Illuminated

Today's Extremes

Country Highs Country Lows

Community

WunderPhotos

Upload Photos

1,955,778 photos uploaded!

WunderBlog® & News

Nearby

Air Quality

  Air Quality AQ Index Pollutant
Not available.

Snow Depth

Station Depth Elevation

Earthquake Activity

City Distance Mag. Time & Date
Minimum magnitude displayed is 2.5.

Coastal Water Temperatures

Place Temperature

Stations

Nearby Weather Stations

Station Location Temp. Windchill Dew Point Humidity Wind Precip. Elev Updated Type